Kezdőlap
METAR-TAF:

METAR-TAF

Repülőterek :

Kuvaitváros, Kuvait

földrajzi szélesség: 29-13N, földrajzi hosszúság: 047-59E, magasság: 55 m

Jelenlegi meteorológiai megfigyelések

A jelentés 16 perccel ezelõtt készült, 17:00 UTC
Északnyugati szél 13 kt
Hőmérséklet 42°C
Páratartalom 9%
Légköri nyomás 998 hPa
Látótávolság 10 km, vagy több
felhőtlen 1500 m magasságban, és nincs gomolyfelhõ

METAR: OKBK 171700Z 32013KT CAVOK 42/03 Q0998 NOSIG

Idő: 20:16 (17:16 UTC)

Előrejelzés

A jelentés 6 órával és 31 perccel ezelõtt készült, 10:45 UTC
Az előrejelzés 17-én 12 óra UTC és 18-én 18 óra UTC között érvényes
Északi szél 15 kt
Látótávolság: 7000 m

TAF: OKBK 171045Z 1712/1818 35015KT 7000 NSC

Meteorológiai megfigyelések és előrejelzések több, mint 4000 repülőtéren (METAR és TAF jelentéseket).

A térképen piros és sárga pontok jelzik az elérhető meteorológiai állomásokat.

Mozgassa az egeret a pont fölött, hogy megjelenjen az állomás neve.

Azután kattintson az időjárási megfigyelések és előrejelzések megtekintéséhez.

A térkép megváltoztatása: kattintson a fekete keresztel jelölt zöld gombra ráközelítéshez, a vonallal jelölt zöld gombra távolításhoz, vagy a zöld nyilakra a szomszédos térképek eléréséhez.


METAR-TAF: